createdAt,value
2019-06-08T00:01:22.676Z,99.90
2019-06-08T00:03:52.535Z,99.90
2019-06-08T00:06:23.052Z,99.90
2019-06-08T00:08:52.608Z,99.90
2019-06-08T00:11:23.587Z,99.90
2019-06-08T00:13:56.064Z,99.90
2019-06-08T00:16:25.562Z,99.90
2019-06-08T00:18:55.081Z,99.90
2019-06-08T00:21:24.681Z,99.90
2019-06-08T00:23:54.220Z,99.90
2019-06-08T00:26:24.358Z,99.90
2019-06-08T00:28:55.013Z,99.90
2019-06-08T00:31:24.652Z,99.90
2019-06-08T00:33:58.425Z,99.90
2019-06-08T00:36:28.073Z,99.90
2019-06-08T00:38:57.381Z,99.90
2019-06-08T00:41:26.964Z,99.90
2019-06-08T00:43:56.372Z,99.90
2019-06-08T00:46:25.829Z,99.90
2019-06-08T00:48:55.215Z,99.90
2019-06-08T00:51:25.552Z,99.90
2019-06-08T00:53:54.958Z,99.90
2019-06-08T00:56:24.310Z,99.90
2019-06-08T00:58:53.664Z,99.90
2019-06-08T01:01:26.028Z,99.90
2019-06-08T01:03:53.937Z,99.90
2019-06-08T01:06:25.054Z,99.90
2019-06-08T01:08:55.520Z,99.90
2019-06-08T01:11:25.062Z,99.90
2019-06-08T01:13:54.460Z,99.90
2019-06-08T01:16:24.948Z,99.90
2019-06-08T01:18:54.709Z,99.90
2019-06-08T01:21:25.483Z,99.90
2019-06-08T01:23:55.018Z,99.90
2019-06-08T01:26:25.954Z,99.90
2019-06-08T01:28:55.615Z,99.90
2019-06-08T01:31:26.445Z,99.90
2019-06-08T01:33:56.245Z,99.90
2019-06-08T01:36:27.350Z,99.90
2019-06-08T01:38:56.762Z,99.90
2019-06-08T01:41:27.629Z,99.90
2019-06-08T01:43:57.288Z,99.90
2019-06-08T01:46:28.105Z,99.90
2019-06-08T01:48:57.994Z,99.90
2019-06-08T01:51:28.513Z,99.90
2019-06-08T01:53:59.216Z,99.90
2019-06-08T01:56:29.209Z,99.90
2019-06-08T01:58:58.803Z,99.90
2019-06-08T02:01:28.226Z,99.90
2019-06-08T02:03:57.754Z,99.90
2019-06-08T02:06:28.436Z,99.90
2019-06-08T02:08:59.148Z,99.90
2019-06-08T02:11:28.850Z,99.90
2019-06-08T02:13:58.532Z,99.90
2019-06-08T02:16:29.618Z,99.90
2019-06-08T02:18:59.547Z,99.90
2019-06-08T02:21:29.072Z,99.90
2019-06-08T02:23:58.524Z,99.90
2019-06-08T02:26:30.375Z,99.90
2019-06-08T02:29:00.223Z,99.90
2019-06-08T02:31:30.719Z,99.90
2019-06-08T02:34:00.857Z,99.90
2019-06-08T02:36:31.618Z,99.90
2019-06-08T02:39:01.400Z,99.90
2019-06-08T02:41:33.054Z,99.90
2019-06-08T02:44:02.650Z,99.90
2019-06-08T02:46:33.350Z,99.90
2019-06-08T02:49:04.749Z,99.90
2019-06-08T02:51:36.480Z,99.90
2019-06-08T02:54:06.130Z,99.90
2019-06-08T02:56:36.673Z,99.90
2019-06-08T02:59:06.945Z,99.90
2019-06-08T03:01:38.262Z,99.90
2019-06-08T03:04:07.689Z,99.90
2019-06-08T03:06:38.882Z,99.90
2019-06-08T03:09:08.549Z,99.90
2019-06-08T03:11:39.214Z,99.90
2019-06-08T03:14:09.130Z,99.90
2019-06-08T03:16:41.126Z,99.90
2019-06-08T03:19:21.807Z,99.90
2019-06-08T03:21:42.485Z,99.90
2019-06-08T03:24:12.180Z,99.90
2019-06-08T03:26:44.123Z,99.90
2019-06-08T03:29:13.782Z,99.90
2019-06-08T03:31:54.200Z,99.90
2019-06-08T03:34:15.283Z,99.90
2019-06-08T03:36:54.890Z,99.90
2019-06-08T03:39:16.054Z,99.90
2019-06-08T03:41:45.747Z,99.90
2019-06-08T03:44:15.239Z,99.90
2019-06-08T03:46:46.009Z,99.90
2019-06-08T03:49:15.920Z,99.90
2019-06-08T03:51:48.596Z,99.90
2019-06-08T03:54:16.576Z,99.90
2019-06-08T03:56:46.299Z,99.90
2019-06-08T03:59:15.745Z,99.90
2019-06-08T04:01:46.173Z,99.90
2019-06-08T04:04:15.827Z,99.90
2019-06-08T04:06:45.852Z,99.90
2019-06-08T04:09:15.338Z,99.90
2019-06-08T04:11:46.791Z,99.90
2019-06-08T04:14:17.416Z,99.90
2019-06-08T04:16:47.066Z,99.90
2019-06-08T04:19:17.700Z,99.90
2019-06-08T04:21:47.084Z,99.90
2019-06-08T04:24:16.477Z,99.90
2019-06-08T04:26:47.233Z,99.90
2019-06-08T04:29:17.689Z,99.90
2019-06-08T04:31:47.076Z,99.90
2019-06-08T04:34:16.471Z,99.90
2019-06-08T04:36:48.076Z,99.90
2019-06-08T04:39:17.093Z,99.90
2019-06-08T04:41:47.147Z,99.90
2019-06-08T04:44:16.683Z,99.90
2019-06-08T04:46:47.849Z,99.90
2019-06-08T04:49:17.357Z,99.90
2019-06-08T04:51:49.528Z,99.90
2019-06-08T04:54:20.047Z,99.90
2019-06-08T04:56:49.678Z,99.90
2019-06-08T04:59:19.360Z,99.90
2019-06-08T05:01:49.341Z,99.90
2019-06-08T05:04:18.908Z,99.90
2019-06-08T05:06:49.423Z,99.90
2019-06-08T05:09:19.305Z,99.90
2019-06-08T05:11:49.724Z,99.90
2019-06-08T05:14:19.356Z,99.90
2019-06-08T05:16:49.710Z,99.90
2019-06-08T05:19:19.191Z,99.90
2019-06-08T05:21:49.922Z,99.90
2019-06-08T05:24:19.671Z,99.90
2019-06-08T05:26:49.624Z,99.90
2019-06-08T05:29:19.321Z,99.90
2019-06-08T05:31:49.833Z,99.90
2019-06-08T05:34:20.364Z,99.90
2019-06-08T05:36:50.015Z,99.90
2019-06-08T05:39:19.723Z,99.90
2019-06-08T05:41:50.405Z,99.90
2019-06-08T05:44:21.809Z,99.90
2019-06-08T05:46:51.555Z,99.90
2019-06-08T05:49:20.965Z,99.90
2019-06-08T05:51:50.540Z,99.90
2019-06-08T05:54:19.987Z,99.90
2019-06-08T05:57:08.794Z,99.90
2019-06-08T05:59:40.059Z,99.90
2019-06-08T06:02:09.468Z,99.90
2019-06-08T06:04:40.682Z,99.90
2019-06-08T06:07:10.121Z,99.90
2019-06-08T06:09:40.985Z,99.90
2019-06-08T06:12:10.648Z,99.90
2019-06-08T06:14:40.670Z,99.90
2019-06-08T06:17:10.402Z,99.90
2019-06-08T06:19:41.031Z,99.40
2019-06-08T06:22:10.544Z,99.00
2019-06-08T06:24:41.667Z,98.90
2019-06-08T06:27:11.337Z,98.30
2019-06-08T06:29:41.405Z,97.60
2019-06-08T06:32:12.141Z,97.20
2019-06-08T06:34:42.096Z,97.30
2019-06-08T06:37:11.538Z,97.40
2019-06-08T06:39:41.917Z,97.00
2019-06-08T06:42:11.462Z,96.70
2019-06-08T06:44:42.100Z,96.10
2019-06-08T06:47:11.826Z,95.80
2019-06-08T06:49:42.405Z,95.70
2019-06-08T06:52:12.523Z,96.00
2019-06-08T06:54:42.782Z,96.40
2019-06-08T06:57:12.442Z,96.30
2019-06-08T06:59:43.163Z,96.60
2019-06-08T07:02:12.733Z,96.50
2019-06-08T07:04:42.099Z,96.70
2019-06-08T07:07:11.533Z,97.10
2019-06-08T07:09:41.104Z,97.00
2019-06-08T07:12:10.665Z,97.00
2019-06-08T07:14:40.103Z,97.40
2019-06-08T07:17:10.686Z,97.50
2019-06-08T07:19:40.230Z,97.70
2019-06-08T07:22:09.997Z,98.10
2019-06-08T07:24:39.466Z,97.70
2019-06-08T07:27:08.918Z,97.60
2019-06-08T07:29:38.658Z,97.80
2019-06-08T07:32:08.480Z,97.60
2019-06-08T07:34:41.026Z,97.40
2019-06-08T07:37:10.163Z,97.80
2019-06-08T07:39:39.838Z,97.40
2019-06-08T07:42:09.463Z,96.90
2019-06-08T07:44:39.031Z,96.70
2019-06-08T07:47:08.575Z,96.20
2019-06-08T07:49:38.164Z,95.20
2019-06-08T07:52:10.647Z,95.20
2019-06-08T07:54:39.047Z,94.30
2019-06-08T07:57:08.712Z,93.70
2019-06-08T07:59:38.103Z,93.30
2019-06-08T08:02:07.429Z,92.40
2019-06-08T08:04:36.907Z,91.70
2019-06-08T08:07:06.313Z,91.20
2019-06-08T08:09:36.173Z,91.10
2019-06-08T08:12:05.698Z,90.20
2019-06-08T08:14:35.233Z,89.10
2019-06-08T08:17:04.688Z,88.00
2019-06-08T08:19:34.304Z,86.20
2019-06-08T08:22:19.536Z,86.00
2019-06-08T08:24:38.493Z,87.60
2019-06-08T08:27:08.441Z,85.70
2019-06-08T08:29:38.411Z,85.40
2019-06-08T08:32:10.001Z,85.20
2019-06-08T08:34:39.062Z,85.50
2019-06-08T08:37:09.916Z,84.90
2019-06-08T08:39:39.532Z,84.10
2019-06-08T08:42:09.263Z,82.50
2019-06-08T08:44:39.033Z,83.20
2019-06-08T08:47:08.373Z,82.90
2019-06-08T08:49:38.195Z,84.50
2019-06-08T08:52:08.793Z,86.50
2019-06-08T08:54:38.875Z,86.70
2019-06-08T08:57:08.719Z,86.10
2019-06-08T08:59:38.388Z,83.60
2019-06-08T09:02:11.226Z,83.40
2019-06-08T09:04:39.079Z,83.30
2019-06-08T09:07:10.596Z,83.30
2019-06-08T09:09:40.318Z,84.30
2019-06-08T09:12:09.770Z,84.60
2019-06-08T09:14:41.584Z,86.00
2019-06-08T09:17:10.558Z,87.10
2019-06-08T09:19:40.102Z,86.10
2019-06-08T09:22:09.589Z,88.00
2019-06-08T09:24:39.283Z,89.00
2019-06-08T09:27:08.954Z,88.90
2019-06-08T09:29:38.964Z,89.00
2019-06-08T09:32:09.709Z,89.40
2019-06-08T09:34:39.304Z,87.00
2019-06-08T09:37:08.951Z,85.20
2019-06-08T09:39:38.747Z,87.00
2019-06-08T09:42:09.183Z,87.10
2019-06-08T09:44:39.766Z,88.50
2019-06-08T09:47:12.325Z,89.80
2019-06-08T09:49:40.637Z,90.40
2019-06-08T09:52:10.410Z,91.10
2019-06-08T09:54:39.923Z,91.00
2019-06-08T09:57:09.733Z,91.40
2019-06-08T09:59:40.369Z,91.20
2019-06-08T10:02:13.008Z,90.40
2019-06-08T10:04:41.353Z,89.90
2019-06-08T10:07:10.924Z,89.70
2019-06-08T10:09:43.348Z,85.30
2019-06-08T10:12:12.202Z,84.20
2019-06-08T10:14:42.136Z,83.40
2019-06-08T10:17:12.715Z,82.10
2019-06-08T10:19:42.302Z,81.30
2019-06-08T10:22:12.507Z,80.10
2019-06-08T10:24:42.283Z,78.60
2019-06-08T10:27:12.125Z,79.30
2019-06-08T10:29:43.053Z,78.80
2019-06-08T10:32:14.225Z,81.20
2019-06-08T10:34:44.123Z,78.00
2019-06-08T10:37:13.963Z,78.90
2019-06-08T10:39:43.447Z,79.60
2019-06-08T10:42:13.157Z,81.20
2019-06-08T10:44:42.794Z,82.50
2019-06-08T10:47:16.166Z,83.90
2019-06-08T10:49:46.081Z,86.50
2019-06-08T10:52:20.110Z,85.20
2019-06-08T10:54:47.085Z,85.90
2019-06-08T10:57:18.220Z,87.20
2019-06-08T10:59:48.660Z,89.30
2019-06-08T11:02:19.568Z,88.90
2019-06-08T11:04:49.189Z,90.20
2019-06-08T11:07:18.934Z,91.00
2019-06-08T11:09:50.635Z,91.50
2019-06-08T11:12:19.706Z,91.90
2019-06-08T11:14:49.243Z,92.70
2019-06-08T11:17:18.799Z,93.10
2019-06-08T11:19:48.503Z,93.70
2019-06-08T11:22:18.494Z,94.10
2019-06-08T11:24:48.697Z,95.40
2019-06-08T11:27:18.775Z,95.40
2019-06-08T11:29:49.989Z,95.60
2019-06-08T11:32:20.500Z,96.60
2019-06-08T11:34:51.134Z,97.20
2019-06-08T11:37:21.251Z,96.90
2019-06-08T11:39:51.095Z,97.20
2019-06-08T11:42:21.516Z,97.50
2019-06-08T11:44:51.491Z,97.30
2019-06-08T11:47:21.259Z,97.50
2019-06-08T11:49:50.887Z,99.10
2019-06-08T11:52:20.713Z,99.10
2019-06-08T11:54:50.317Z,98.50
2019-06-08T11:57:20.398Z,99.90
2019-06-08T11:59:49.974Z,99.30
2019-06-08T12:02:19.576Z,99.90
2019-06-08T12:04:50.101Z,99.30
2019-06-08T12:07:19.962Z,99.90
2019-06-08T12:09:50.354Z,99.90
2019-06-08T12:12:21.326Z,99.80
2019-06-08T12:14:51.569Z,99.90
2019-06-08T12:17:22.573Z,99.90
2019-06-08T12:19:53.653Z,99.90
2019-06-08T12:22:24.018Z,99.90
2019-06-08T12:24:53.977Z,99.90
2019-06-08T12:27:33.152Z,99.90
2019-06-08T12:29:55.036Z,99.90
2019-06-08T12:32:24.923Z,99.90
2019-06-08T12:34:54.584Z,99.90
2019-06-08T12:37:23.990Z,99.90
2019-06-08T12:39:53.561Z,98.80
2019-06-08T12:42:25.018Z,99.30
2019-06-08T12:44:54.451Z,98.40
2019-06-08T12:47:26.894Z,98.30
2019-06-08T12:49:54.884Z,97.50
2019-06-08T12:52:24.324Z,97.30
2019-06-08T12:55:00.127Z,96.70
2019-06-08T12:57:24.915Z,96.40
2019-06-08T12:59:54.399Z,96.70
2019-06-08T13:02:24.335Z,97.10
2019-06-08T13:04:53.972Z,97.50
2019-06-08T13:07:23.723Z,96.90
2019-06-08T13:09:53.594Z,95.60
2019-06-08T13:12:23.177Z,95.00
2019-06-08T13:14:52.544Z,94.20
2019-06-08T13:17:22.178Z,94.10
2019-06-08T13:19:51.731Z,94.00
2019-06-08T13:22:27.804Z,94.10
2019-06-08T13:24:52.356Z,93.50
2019-06-08T13:27:23.249Z,93.80
2019-06-08T13:29:52.852Z,93.20
2019-06-08T13:32:22.492Z,92.20
2019-06-08T13:34:52.347Z,91.10
2019-06-08T13:37:22.314Z,91.80
2019-06-08T13:39:51.667Z,91.70
2019-06-08T13:42:22.765Z,91.90
2019-06-08T13:44:51.981Z,92.00
2019-06-08T13:47:22.979Z,91.70
2019-06-08T13:49:53.722Z,90.60
2019-06-08T13:52:25.119Z,91.20
2019-06-08T13:54:54.803Z,90.60
2019-06-08T13:57:25.151Z,90.50
2019-06-08T13:59:57.773Z,90.10
2019-06-08T14:02:30.949Z,89.60
2019-06-08T14:04:59.105Z,90.20
2019-06-08T14:07:34.327Z,86.90
2019-06-08T14:09:59.880Z,82.30
2019-06-08T14:12:30.967Z,84.50
2019-06-08T14:15:00.443Z,83.80
2019-06-08T14:17:30.184Z,82.50
2019-06-08T14:19:59.572Z,81.00
2019-06-08T14:22:30.302Z,77.20
2019-06-08T14:24:59.886Z,75.40
2019-06-08T14:27:32.961Z,74.50
2019-06-08T14:30:00.300Z,73.40
2019-06-08T14:35:02.085Z,80.80
2019-06-08T14:37:30.563Z,84.00
2019-06-08T14:40:00.452Z,83.50
2019-06-08T14:42:31.822Z,82.00
2019-06-08T14:45:01.310Z,84.00
2019-06-08T14:47:30.850Z,80.50
2019-06-08T14:50:01.604Z,72.30
2019-06-08T14:52:31.706Z,70.70
2019-06-08T14:55:01.346Z,71.00
2019-06-08T14:57:31.088Z,70.30
2019-06-08T15:00:08.341Z,70.40
2019-06-08T15:02:32.178Z,71.20
2019-06-08T15:05:02.675Z,68.90
2019-06-08T15:07:32.858Z,67.80
2019-06-08T15:10:02.422Z,67.80
2019-06-08T15:12:31.961Z,69.00
2019-06-08T15:15:01.436Z,68.90
2019-06-08T15:17:32.082Z,68.40
2019-06-08T15:20:01.689Z,67.40
2019-06-08T15:22:32.005Z,69.90
2019-06-08T15:25:01.947Z,71.60
2019-06-08T15:27:33.321Z,73.10
2019-06-08T15:30:02.648Z,75.10
2019-06-08T15:32:35.073Z,75.40
2019-06-08T15:35:04.596Z,74.80
2019-06-08T15:37:34.058Z,73.30
2019-06-08T15:40:07.511Z,72.50
2019-06-08T15:42:36.349Z,70.00
2019-06-08T15:45:08.646Z,65.00
2019-06-08T15:47:40.511Z,64.80
2019-06-08T15:50:09.430Z,61.90
2019-06-08T15:52:38.857Z,63.30
2019-06-08T15:55:11.200Z,63.50
2019-06-08T15:57:41.309Z,64.90
2019-06-08T16:00:10.478Z,65.20
2019-06-08T16:02:39.965Z,63.30
2019-06-08T16:05:11.183Z,63.40
2019-06-08T16:07:40.812Z,63.60
2019-06-08T16:10:10.414Z,62.10
2019-06-08T16:12:40.177Z,61.30
2019-06-08T16:15:10.019Z,62.80
2019-06-08T16:17:39.440Z,62.50
2019-06-08T16:20:09.316Z,63.10
2019-06-08T16:22:38.756Z,64.70
2019-06-08T16:25:08.296Z,64.70
2019-06-08T16:27:37.723Z,62.50
2019-06-08T16:30:09.579Z,63.20
2019-06-08T16:32:39.803Z,61.90
2019-06-08T16:35:10.420Z,61.10
2019-06-08T16:37:39.981Z,60.70
2019-06-08T16:40:11.026Z,61.20
2019-06-08T16:42:40.392Z,59.90
2019-06-08T16:45:10.319Z,60.40
2019-06-08T16:47:43.203Z,59.90
2019-06-08T16:50:23.238Z,60.60
2019-06-08T16:52:43.354Z,59.40
2019-06-08T16:55:12.754Z,58.70
2019-06-08T16:57:42.224Z,59.00
2019-06-08T17:00:30.356Z,59.30
2019-06-08T17:02:42.744Z,59.60
2019-06-08T17:05:12.171Z,58.70
2019-06-08T17:07:41.873Z,59.50
2019-06-08T17:10:11.528Z,59.00
2019-06-08T17:12:41.272Z,59.80
2019-06-08T17:15:10.993Z,60.50
2019-06-08T17:17:40.567Z,59.70
2019-06-08T17:20:10.153Z,60.00
2019-06-08T17:22:40.810Z,63.70
2019-06-08T17:25:10.889Z,67.50
2019-06-08T17:27:40.857Z,64.90
2019-06-08T17:30:10.524Z,64.90
2019-06-08T17:32:40.622Z,65.20
2019-06-08T17:35:10.960Z,65.90
2019-06-08T17:37:41.876Z,66.40
2019-06-08T17:40:11.827Z,69.00
2019-06-08T17:42:41.704Z,68.30
2019-06-08T17:45:11.469Z,69.00
2019-06-08T17:47:41.071Z,69.10
2019-06-08T17:50:11.525Z,67.10
2019-06-08T17:52:41.087Z,68.90
2019-06-08T17:55:11.202Z,68.90
2019-06-08T17:57:49.512Z,69.20
2019-06-08T18:00:12.466Z,69.70
2019-06-08T18:02:43.754Z,71.00
2019-06-08T18:05:13.522Z,70.80
2019-06-08T18:07:44.315Z,71.20
2019-06-08T18:10:17.805Z,70.90
2019-06-08T18:12:49.050Z,72.10
2019-06-08T18:15:18.919Z,72.40
2019-06-08T18:17:48.457Z,71.90
2019-06-08T18:20:18.405Z,72.00
2019-06-08T18:22:49.384Z,72.40
2019-06-08T18:25:19.009Z,72.40
2019-06-08T18:28:05.366Z,72.30
2019-06-08T18:30:19.831Z,73.10
2019-06-08T18:32:49.239Z,73.90
2019-06-08T18:35:18.978Z,74.40
2019-06-08T18:37:49.403Z,74.30
2019-06-08T18:40:19.014Z,75.10
2019-06-08T18:42:49.287Z,75.20
2019-06-08T18:45:19.316Z,75.50
2019-06-08T18:47:48.979Z,75.80
2019-06-08T18:50:21.752Z,77.50
2019-06-08T18:52:51.351Z,76.90
2019-06-08T18:55:21.068Z,73.60
2019-06-08T18:57:50.923Z,72.80
2019-06-08T19:00:23.862Z,73.70
2019-06-08T19:02:54.369Z,73.60
2019-06-08T19:05:24.505Z,73.80
2019-06-08T19:07:54.225Z,74.10
2019-06-08T19:10:32.237Z,73.60
2019-06-08T19:13:01.834Z,73.90
2019-06-08T19:15:33.622Z,75.10
2019-06-08T19:18:03.220Z,74.20
2019-06-08T19:20:32.736Z,74.30
2019-06-08T19:23:02.425Z,74.90
2019-06-08T19:25:32.259Z,74.70
2019-06-08T19:28:02.275Z,75.50
2019-06-08T19:30:31.927Z,76.00
2019-06-08T19:33:01.697Z,75.60
2019-06-08T19:35:34.562Z,75.80
2019-06-08T19:38:03.200Z,76.40
2019-06-08T19:40:34.920Z,76.80
2019-06-08T19:43:07.389Z,76.70
2019-06-08T19:45:40.282Z,76.10
2019-06-08T19:48:09.531Z,76.10
2019-06-08T19:50:40.120Z,76.20
2019-06-08T19:53:10.183Z,76.80
2019-06-08T19:55:41.074Z,77.20
2019-06-08T19:58:10.727Z,77.80
2019-06-08T20:00:42.204Z,79.30
2019-06-08T20:03:12.006Z,78.70
2019-06-08T20:05:42.887Z,80.00
2019-06-08T20:08:12.767Z,80.30
2019-06-08T20:10:43.051Z,82.70
2019-06-08T20:13:12.509Z,83.60
2019-06-08T20:15:47.360Z,84.10
2019-06-08T20:18:13.153Z,83.00
2019-06-08T20:20:43.810Z,85.10
2019-06-08T20:23:13.485Z,84.60
2019-06-08T20:25:43.116Z,86.00
2019-06-08T20:28:12.656Z,84.30
2019-06-08T20:30:42.672Z,83.90
2019-06-08T20:33:12.223Z,85.60
2019-06-08T20:35:41.709Z,86.90
2019-06-08T20:38:11.055Z,87.00
2019-06-08T20:40:42.098Z,86.50
2019-06-08T20:43:11.861Z,88.90
2019-06-08T20:45:42.014Z,89.60
2019-06-08T20:48:11.639Z,90.30
2019-06-08T20:50:42.246Z,88.00
2019-06-08T20:53:11.877Z,88.10
2019-06-08T20:55:41.322Z,88.30
2019-06-08T20:58:10.917Z,88.20
2019-06-08T21:00:40.264Z,90.50
2019-06-08T21:03:09.883Z,91.30
2019-06-08T21:05:39.519Z,91.10
2019-06-08T21:08:10.123Z,90.80
2019-06-08T21:10:39.780Z,90.90
2019-06-08T21:13:09.388Z,91.60
2019-06-08T21:15:38.926Z,92.10
2019-06-08T21:18:09.710Z,92.80
2019-06-08T21:20:39.168Z,91.40
2019-06-08T21:23:08.932Z,91.10
2019-06-08T21:25:38.323Z,90.00
2019-06-08T21:28:07.936Z,91.00
2019-06-08T21:30:39.564Z,90.90
2019-06-08T21:33:09.286Z,91.30
2019-06-08T21:35:40.271Z,90.90
2019-06-08T21:38:23.037Z,92.90
2019-06-08T21:40:41.164Z,91.90
2019-06-08T21:43:10.542Z,90.40
2019-06-08T21:45:40.236Z,91.10
2019-06-08T21:48:09.674Z,91.50
2019-06-08T21:50:39.238Z,90.10
2019-06-08T21:53:08.605Z,90.10
2019-06-08T21:55:38.629Z,92.00
2019-06-08T21:58:08.522Z,92.10
2019-06-08T22:00:43.422Z,92.30
2019-06-08T22:03:13.247Z,92.90
2019-06-08T22:05:43.375Z,93.10
2019-06-08T22:08:12.799Z,93.30
2019-06-08T22:10:42.705Z,93.60
2019-06-08T22:13:12.570Z,93.90
2019-06-08T22:15:42.637Z,93.90
2019-06-08T22:18:12.434Z,96.60
2019-06-08T22:20:41.898Z,95.10
2019-06-08T22:23:11.512Z,95.40
2019-06-08T22:25:41.160Z,95.30
2019-06-08T22:28:11.186Z,95.50
2019-06-08T22:30:43.174Z,95.70
2019-06-08T22:33:11.888Z,95.60
2019-06-08T22:35:41.819Z,95.70
2019-06-08T22:38:11.344Z,95.70
2019-06-08T22:40:41.162Z,95.80
2019-06-08T22:43:10.682Z,95.80
2019-06-08T22:45:40.053Z,95.60
2019-06-08T22:48:09.503Z,96.00
2019-06-08T22:50:39.135Z,96.40
2019-06-08T22:53:08.701Z,96.50
2019-06-08T22:55:38.380Z,96.20
2019-06-08T22:58:08.126Z,96.70
2019-06-08T23:00:51.844Z,96.60
2019-06-08T23:03:08.892Z,96.80
2019-06-08T23:05:39.666Z,96.90
2019-06-08T23:08:09.646Z,97.00
2019-06-08T23:10:39.118Z,97.10
2019-06-08T23:13:08.792Z,97.20
2019-06-08T23:15:39.418Z,97.20
2019-06-08T23:18:09.503Z,97.30
2019-06-08T23:20:39.292Z,97.30
2019-06-08T23:23:09.143Z,97.50
2019-06-08T23:25:39.005Z,97.50
2019-06-08T23:28:09.885Z,97.20
2019-06-08T23:30:39.568Z,97.20
2019-06-08T23:33:11.267Z,97.00
2019-06-08T23:36:20.694Z,96.80
2019-06-08T23:38:13.299Z,97.10
2019-06-08T23:40:43.709Z,97.20
2019-06-08T23:43:13.635Z,97.40
2019-06-08T23:45:43.140Z,97.30
2019-06-08T23:48:12.598Z,97.00
2019-06-08T23:50:43.011Z,97.30
2019-06-08T23:53:12.436Z,97.80
2019-06-08T23:55:41.828Z,97.80
2019-06-08T23:58:11.455Z,98.00
